Time;durP1;ratioP1;P1;durP2;ratioP2;P2;SDS_P1;SDS_P2;PMS_P1;PMS_P2;Temp;Humidity;BMP_temperature;BMP_pressure;BME280_temperature;BME280_humidity;BME280_pressure;Samples;Min_cycle;Max_cycle;Signal;HPM_P1;HPM_P2
2024/01/10 00:01:53;;;;;;;5.50;4.67;;;;;;;;;;5027322;28;20216;-87
2024/01/10 00:04:19;;;;;;;5.57;4.83;;;;;;;;;;5032508;28;20333;-87
2024/01/10 00:06:47;;;;;;;4.93;4.43;;;;;;;;;;5013206;28;20216;-85
2024/01/10 00:09:15;;;;;;;6.17;4.17;;;;;;;;;;5015476;28;20216;-87
2024/01/10 00:11:43;;;;;;;7.50;4.40;;;;;;;;;;5012100;28;20215;-86
2024/01/10 00:14:11;;;;;;;5.80;4.37;;;;;;;;;;5013353;28;20230;-87
2024/01/10 00:16:44;;;;;;;4.13;3.73;;;;;;;;;;5014871;28;20226;-87
2024/01/10 00:19:10;;;;;;;5.23;4.23;;;;;;;;;;4997569;28;20222;-86
2024/01/10 00:21:36;;;;;;;5.00;4.30;;;;;;;;;;5026560;28;20234;-87
2024/01/10 00:24:01;;;;;;;4.90;4.33;;;;;;;;;;5013908;28;20227;-87
2024/01/10 00:26:29;;;;;;;4.93;4.53;;;;;;;;;;4991925;28;20231;-86
2024/01/10 00:28:54;;;;;;;7.47;4.83;;;;;;;;;;5006590;28;20225;-86
2024/01/10 00:31:22;;;;;;;4.43;4.03;;;;;;;;;;5018212;28;20224;-87
2024/01/10 00:33:52;;;;;;;5.30;4.80;;;;;;;;;;5010332;28;20992;-87
2024/01/10 00:36:17;;;;;;;5.40;4.90;;;;;;;;;;5037208;28;20219;-87
2024/01/10 00:38:43;;;;;;;7.50;5.37;;;;;;;;;;5015997;28;20300;-85
2024/01/10 00:41:13;;;;;;;6.33;5.73;;;;;;;;;;5033076;28;20808;-86
2024/01/10 00:43:39;;;;;;;7.70;5.63;;;;;;;;;;5022626;28;20223;-86
2024/01/10 00:46:04;;;;;;;5.77;5.27;;;;;;;;;;5005396;28;20836;-88
2024/01/10 00:48:30;;;;;;;6.70;6.10;;;;;;;;;;4997979;28;20253;-86
2024/01/10 00:50:57;;;;;;;7.47;6.03;;;;;;;;;;5046464;28;20231;-87
2024/01/10 00:53:23;;;;;;;6.83;6.23;;;;;;;;;;5045160;28;20231;-87
2024/01/10 00:55:48;;;;;;;6.80;6.07;;;;;;;;;;5012926;28;20219;-86
2024/01/10 00:58:14;;;;;;;7.10;6.40;;;;;;;;;;5002345;28;20228;-85
2024/01/10 01:00:39;;;;;;;7.70;6.17;;;;;;;;;;5042964;28;20716;-86
2024/01/10 01:03:06;;;;;;;7.03;6.33;;;;;;;;;;5015386;28;20223;-87
2024/01/10 01:05:36;;;;;;;6.90;5.90;;;;;;;;;;4999733;28;20220;-88
2024/01/10 01:08:01;;;;;;;6.97;6.27;;;;;;;;;;5009250;28;20224;-86
2024/01/10 01:10:29;;;;;;;7.57;6.40;;;;;;;;;;5012814;28;20645;-86
2024/01/10 01:12:55;;;;;;;8.27;6.40;;;;;;;;;;5012832;28;20219;-85
2024/01/10 01:15:23;;;;;;;7.53;6.83;;;;;;;;;;4998968;28;20220;-85
2024/01/10 01:17:49;;;;;;;8.13;7.30;;;;;;;;;;5015759;28;20281;-84
2024/01/10 01:20:14;;;;;;;6.90;6.17;;;;;;;;;;4994459;28;20212;-84
2024/01/10 01:22:42;;;;;;;7.63;6.70;;;;;;;;;;5014155;28;20216;-85
2024/01/10 01:25:10;;;;;;;6.50;5.90;;;;;;;;;;5017186;28;20254;-88
2024/01/10 01:27:35;;;;;;;7.93;7.00;;;;;;;;;;5014840;28;20242;-88
2024/01/10 01:30:01;;;;;;;6.43;5.73;;;;;;;;;;5014638;28;20589;-85
2024/01/10 01:32:27;;;;;;;6.63;5.83;;;;;;;;;;5010356;28;20626;-86
2024/01/10 01:34:52;;;;;;;7.23;6.23;;;;;;;;;;5017843;28;20273;-84
2024/01/10 01:37:23;;;;;;;6.23;5.63;;;;;;;;;;5022014;28;20246;-86
2024/01/10 01:39:49;;;;;;;7.87;6.07;;;;;;;;;;5002849;28;20218;-86
2024/01/10 01:42:17;;;;;;;7.20;5.80;;;;;;;;;;5039439;28;20216;-87
2024/01/10 01:44:45;;;;;;;6.00;5.50;;;;;;;;;;5020436;28;20293;-87
2024/01/10 01:47:12;;;;;;;6.13;5.47;;;;;;;;;;5016738;28;20238;-87
2024/01/10 01:49:38;;;;;;;6.73;6.03;;;;;;;;;;5038600;28;20209;-85
2024/01/10 01:52:06;;;;;;;7.17;5.97;;;;;;;;;;5033924;28;20272;-83
2024/01/10 01:54:32;;;;;;;6.50;5.87;;;;;;;;;;5024737;28;20215;-86
2024/01/10 01:57:00;;;;;;;6.13;5.53;;;;;;;;;;5016997;28;20775;-85
2024/01/10 01:59:26;;;;;;;7.63;5.40;;;;;;;;;;5020283;28;20327;-87
2024/01/10 02:01:52;;;;;;;7.00;6.07;;;;;;;;;;5014067;28;20220;-86
2024/01/10 02:04:18;;;;;;;6.30;5.70;;;;;;;;;;5015147;28;20219;-86
2024/01/10 02:06:43;;;;;;;6.83;6.00;;;;;;;;;;5015779;28;20241;-85
2024/01/10 02:09:09;;;;;;;6.27;5.57;;;;;;;;;;5014147;28;20253;-87
2024/01/10 02:11:35;;;;;;;5.20;4.77;;;;;;;;;;5029604;28;20227;-85
2024/01/10 02:14:03;;;;;;;9.43;6.17;;;;;;;;;;5003273;28;21056;-86
2024/01/10 02:16:28;;;;;;;6.30;5.80;;;;;;;;;;5031394;28;20223;-86
2024/01/10 02:18:56;;;;;;;8.20;5.70;;;;;;;;;;5026600;28;20719;-84
2024/01/10 02:21:28;;;;;;;6.40;5.70;;;;;;;;;;5029376;28;20228;-86
2024/01/10 02:23:56;;;;;;;7.43;5.90;;;;;;;;;;5019064;28;20216;-86
2024/01/10 02:26:24;;;;;;;6.30;5.70;;;;;;;;;;5029798;28;20223;-86
2024/01/10 02:28:52;;;;;;;6.50;5.90;;;;;;;;;;5014442;28;20216;-85
2024/01/10 02:31:19;;;;;;;6.83;6.07;;;;;;;;;;5014884;28;20219;-85
2024/01/10 02:33:50;;;;;;;6.80;6.17;;;;;;;;;;5018538;28;20223;-85
2024/01/10 02:36:18;;;;;;;6.30;5.53;;;;;;;;;;5020004;28;20317;-85
2024/01/10 02:38:43;;;;;;;7.90;6.47;;;;;;;;;;5035663;28;20240;-86
2024/01/10 02:41:09;;;;;;;8.10;6.37;;;;;;;;;;5013563;28;20684;-86
2024/01/10 02:43:34;;;;;;;10.10;6.07;;;;;;;;;;5006641;28;20224;-86
2024/01/10 02:46:02;;;;;;;7.33;5.90;;;;;;;;;;4997575;28;20232;-85
2024/01/10 02:48:28;;;;;;;6.60;6.00;;;;;;;;;;5030100;28;20239;-86
2024/01/10 02:50:56;;;;;;;7.50;6.67;;;;;;;;;;5020199;28;20247;-84
2024/01/10 02:53:24;;;;;;;6.20;5.60;;;;;;;;;;5032490;28;20223;-85
2024/01/10 02:55:50;;;;;;;7.00;6.00;;;;;;;;;;5028661;28;20250;-84
2024/01/10 02:58:15;;;;;;;5.33;4.90;;;;;;;;;;5028058;28;20239;-85
2024/01/10 03:00:41;;;;;;;6.23;5.63;;;;;;;;;;5038145;28;20834;-86
2024/01/10 03:03:09;;;;;;;6.77;5.83;;;;;;;;;;5017790;28;20224;-86
2024/01/10 03:05:39;;;;;;;6.60;5.90;;;;;;;;;;5001912;28;20866;-84
2024/01/10 03:08:06;;;;;;;6.73;5.67;;;;;;;;;;5029093;28;20236;-85
2024/01/10 03:10:32;;;;;;;6.13;5.60;;;;;;;;;;5009467;28;20236;-85
2024/01/10 03:12:57;;;;;;;7.77;5.70;;;;;;;;;;4994928;28;20223;-84
2024/01/10 03:15:27;;;;;;;7.10;5.80;;;;;;;;;;5039482;28;20220;-84
2024/01/10 03:17:55;;;;;;;7.40;6.20;;;;;;;;;;5038092;28;20215;-86
2024/01/10 03:20:20;;;;;;;7.67;5.67;;;;;;;;;;5017668;28;20226;-86
2024/01/10 03:22:48;;;;;;;5.83;5.17;;;;;;;;;;5023728;28;20216;-85
2024/01/10 03:25:14;;;;;;;8.17;6.27;;;;;;;;;;5027368;28;20212;-84
2024/01/10 03:27:39;;;;;;;6.20;5.60;;;;;;;;;;5038905;28;21023;-85
2024/01/10 03:30:06;;;;;;;6.90;5.50;;;;;;;;;;5022668;28;20216;-85
2024/01/10 03:32:31;;;;;;;5.93;5.33;;;;;;;;;;5026823;28;20250;-85
2024/01/10 03:34:57;;;;;;;6.07;5.53;;;;;;;;;;5020684;28;20223;-86
2024/01/10 03:37:22;;;;;;;6.90;5.40;;;;;;;;;;5014170;28;20228;-86
2024/01/10 03:39:48;;;;;;;5.87;5.37;;;;;;;;;;4994496;28;20220;-85
2024/01/10 03:42:15;;;;;;;5.77;5.23;;;;;;;;;;5034928;28;20223;-87
2024/01/10 03:44:43;;;;;;;5.20;4.73;;;;;;;;;;5011861;28;20215;-86
2024/01/10 03:47:09;;;;;;;5.53;5.03;;;;;;;;;;5015017;28;20320;-86
2024/01/10 03:49:34;;;;;;;6.00;5.40;;;;;;;;;;5017232;28;20229;-85
2024/01/10 03:52:00;;;;;;;5.30;4.80;;;;;;;;;;5032205;28;20218;-87
2024/01/10 04:05:46;;;;;;;5.70;4.67;;;;;;;;;;5047623;28;20227;-84
2024/01/10 04:08:13;;;;;;;5.10;4.60;;;;;;;;;;5012074;28;20224;-85
2024/01/10 04:10:39;;;;;;;6.93;5.27;;;;;;;;;;4997393;28;20320;-87
2024/01/10 04:13:05;;;;;;;5.67;5.17;;;;;;;;;;5004770;28;20242;-85
2024/01/10 04:15:35;;;;;;;5.30;4.73;;;;;;;;;;5010709;28;20243;-86
2024/01/10 04:18:00;;;;;;;5.20;4.70;;;;;;;;;;5009884;28;20220;-84
2024/01/10 04:20:28;;;;;;;5.40;4.90;;;;;;;;;;5000906;28;20405;-85
2024/01/10 04:22:55;;;;;;;6.10;4.90;;;;;;;;;;5012749;28;20211;-87
2024/01/10 04:25:21;;;;;;;6.27;5.67;;;;;;;;;;5014903;28;20222;-85
2024/01/10 04:27:50;;;;;;;6.40;5.80;;;;;;;;;;5039632;28;20238;-86
2024/01/10 04:30:20;;;;;;;6.00;5.40;;;;;;;;;;5019619;28;20358;-87
2024/01/10 04:32:48;;;;;;;5.33;4.83;;;;;;;;;;5018501;28;20278;-87
2024/01/10 04:35:16;;;;;;;5.03;4.57;;;;;;;;;;5012510;28;20258;-87
2024/01/10 04:37:44;;;;;;;5.30;4.80;;;;;;;;;;4997294;28;20962;-86
2024/01/10 04:40:12;;;;;;;5.00;4.50;;;;;;;;;;4997042;28;20297;-86
2024/01/10 04:42:39;;;;;;;5.00;4.17;;;;;;;;;;5027494;28;20604;-87
2024/01/10 04:45:07;;;;;;;5.23;4.73;;;;;;;;;;5013161;28;20222;-86
2024/01/10 04:47:33;;;;;;;4.47;4.00;;;;;;;;;;5017916;28;20215;-85
2024/01/10 04:50:01;;;;;;;5.00;4.47;;;;;;;;;;5012187;28;21075;-78
2024/01/10 04:52:32;;;;;;;4.93;4.50;;;;;;;;;;5037019;28;20224;-78
2024/01/10 04:54:57;;;;;;;4.50;4.10;;;;;;;;;;5011269;28;20215;-78
2024/01/10 04:57:27;;;;;;;5.07;4.57;;;;;;;;;;5038988;28;20765;-78
2024/01/10 04:59:55;;;;;;;5.13;4.63;;;;;;;;;;5021333;28;20551;-78
2024/01/10 05:02:20;;;;;;;4.53;4.13;;;;;;;;;;5038059;28;20221;-78
2024/01/10 05:04:46;;;;;;;4.53;4.07;;;;;;;;;;5037436;28;20228;-78
2024/01/10 05:07:16;;;;;;;4.70;4.30;;;;;;;;;;5040294;28;20227;-78
2024/01/10 05:09:43;;;;;;;4.63;4.23;;;;;;;;;;5024971;28;20226;-78
2024/01/10 05:12:09;;;;;;;4.93;4.53;;;;;;;;;;5025008;28;20230;-79
2024/01/10 05:14:34;;;;;;;5.30;4.30;;;;;;;;;;5015773;28;20219;-78
2024/01/10 05:17:03;;;;;;;5.03;4.53;;;;;;;;;;5025921;28;20230;-78
2024/01/10 05:19:29;;;;;;;5.97;4.77;;;;;;;;;;5008242;28;20212;-78
2024/01/10 05:21:54;;;;;;;5.10;4.60;;;;;;;;;;5031792;28;20230;-78
2024/01/10 05:24:20;;;;;;;5.70;5.10;;;;;;;;;;5010464;28;20232;-78
2024/01/10 05:26:51;;;;;;;6.03;5.20;;;;;;;;;;5024083;28;20682;-78
2024/01/10 05:29:23;;;;;;;5.40;4.90;;;;;;;;;;5015541;28;20249;-78
2024/01/10 05:31:49;;;;;;;6.10;4.90;;;;;;;;;;5022847;28;20619;-78
2024/01/10 05:34:15;;;;;;;5.20;4.37;;;;;;;;;;5008573;28;20311;-78
2024/01/10 05:36:40;;;;;;;6.03;4.60;;;;;;;;;;5025245;28;20224;-78
2024/01/10 05:39:06;;;;;;;5.90;4.27;;;;;;;;;;5005980;28;20681;-78
2024/01/10 05:41:31;;;;;;;4.67;4.27;;;;;;;;;;5042114;28;20211;-78
2024/01/10 05:43:57;;;;;;;5.27;4.73;;;;;;;;;;5025264;28;20220;-79
2024/01/10 05:46:24;;;;;;;4.93;4.40;;;;;;;;;;5030822;28;20230;-78
2024/01/10 05:48:50;;;;;;;4.70;4.30;;;;;;;;;;5019001;28;20259;-78
2024/01/10 05:51:15;;;;;;;5.33;4.67;;;;;;;;;;5010657;28;20705;-78
2024/01/10 05:53:41;;;;;;;4.97;4.40;;;;;;;;;;5030021;28;20759;-78
2024/01/10 05:56:09;;;;;;;4.47;4.07;;;;;;;;;;5026208;28;20216;-78
2024/01/10 05:58:37;;;;;;;4.63;4.23;;;;;;;;;;5007928;28;20673;-78
2024/01/10 06:01:09;;;;;;;4.97;4.17;;;;;;;;;;5015466;28;20215;-78
2024/01/10 06:03:38;;;;;;;5.90;4.40;;;;;;;;;;5024966;28;20250;-78
2024/01/10 06:06:04;;;;;;;5.83;3.80;;;;;;;;;;5029021;28;20230;-78
2024/01/10 06:08:32;;;;;;;4.27;3.87;;;;;;;;;;5042598;28;20298;-77
2024/01/10 06:10:57;;;;;;;4.27;3.87;;;;;;;;;;5025996;28;20235;-78
2024/01/10 06:13:26;;;;;;;4.83;4.33;;;;;;;;;;5021983;28;20228;-77
2024/01/10 06:15:52;;;;;;;5.67;4.33;;;;;;;;;;5043129;28;20222;-78
2024/01/10 06:18:17;;;;;;;5.10;4.43;;;;;;;;;;5025434;28;20220;-78
2024/01/10 06:20:43;;;;;;;6.53;4.90;;;;;;;;;;5042657;28;20216;-78
2024/01/10 06:23:11;;;;;;;5.33;4.67;;;;;;;;;;5029992;28;20224;-79
2024/01/10 06:25:44;;;;;;;5.90;4.97;;;;;;;;;;5025514;28;20754;-78
2024/01/10 06:28:09;;;;;;;4.80;4.00;;;;;;;;;;5006518;28;20251;-77
2024/01/10 06:30:35;;;;;;;4.67;4.13;;;;;;;;;;5040641;28;20227;-78
2024/01/10 06:33:04;;;;;;;5.20;4.70;;;;;;;;;;5008621;28;20232;-78
2024/01/10 06:35:32;;;;;;;5.27;4.13;;;;;;;;;;5015501;28;20218;-78
2024/01/10 06:37:57;;;;;;;4.60;3.97;;;;;;;;;;5016787;28;20224;-77
2024/01/10 06:40:23;;;;;;;4.50;4.07;;;;;;;;;;5040569;28;20300;-77
2024/01/10 06:42:51;;;;;;;4.80;4.30;;;;;;;;;;5031440;28;20774;-77
2024/01/10 06:45:16;;;;;;;5.20;4.70;;;;;;;;;;4991828;28;21007;-77
2024/01/10 06:47:42;;;;;;;5.03;4.23;;;;;;;;;;5022715;28;20223;-78
2024/01/10 06:50:08;;;;;;;5.57;4.53;;;;;;;;;;5023675;28;20232;-77
2024/01/10 06:52:37;;;;;;;5.90;5.30;;;;;;;;;;5042252;28;20223;-78
2024/01/10 06:55:04;;;;;;;6.43;5.20;;;;;;;;;;5028555;28;20275;-78
2024/01/10 06:57:32;;;;;;;6.60;5.33;;;;;;;;;;5041498;28;20230;-78
2024/01/10 06:59:58;;;;;;;5.43;4.93;;;;;;;;;;5029869;28;20219;-78
2024/01/10 07:02:23;;;;;;;5.63;5.13;;;;;;;;;;5028337;28;20232;-79
2024/01/10 07:04:49;;;;;;;5.83;4.83;;;;;;;;;;5045824;28;20216;-78
2024/01/10 07:07:17;;;;;;;5.57;5.00;;;;;;;;;;5024273;28;20677;-78
2024/01/10 07:09:42;;;;;;;6.10;5.40;;;;;;;;;;5026921;28;20240;-77
2024/01/10 07:12:10;;;;;;;6.83;5.27;;;;;;;;;;5047431;28;20322;-78
2024/01/10 07:14:38;;;;;;;5.47;4.97;;;;;;;;;;5022258;28;20219;-78
2024/01/10 07:17:04;;;;;;;5.43;4.87;;;;;;;;;;5041567;28;20533;-78
2024/01/10 07:19:29;;;;;;;6.30;5.23;;;;;;;;;;5040763;28;20595;-78
2024/01/10 07:21:58;;;;;;;7.83;5.70;;;;;;;;;;5026305;28;20212;-78
2024/01/10 07:24:24;;;;;;;5.40;4.90;;;;;;;;;;5041938;28;20230;-78
2024/01/10 07:26:49;;;;;;;5.23;4.70;;;;;;;;;;5052140;28;20224;-77
2024/01/10 07:29:15;;;;;;;5.47;4.90;;;;;;;;;;5042524;28;20288;-77
2024/01/10 07:31:40;;;;;;;5.47;4.90;;;;;;;;;;5020069;28;20216;-78
2024/01/10 07:34:06;;;;;;;5.30;4.63;;;;;;;;;;5034804;28;20212;-77
2024/01/10 07:36:33;;;;;;;5.50;5.00;;;;;;;;;;5022585;28;20692;-78
2024/01/10 07:39:00;;;;;;;5.20;4.70;;;;;;;;;;5012288;28;20715;-78
2024/01/10 07:41:28;;;;;;;6.43;5.00;;;;;;;;;;5022364;28;20315;-77
2024/01/10 07:43:56;;;;;;;5.20;4.70;;;;;;;;;;5012917;28;20307;-78
2024/01/10 07:46:23;;;;;;;5.80;5.20;;;;;;;;;;5036666;28;20235;-78
2024/01/10 07:48:49;;;;;;;6.07;5.50;;;;;;;;;;5008528;28;20274;-77
2024/01/10 07:51:17;;;;;;;7.00;5.40;;;;;;;;;;5035455;28;20247;-77
2024/01/10 07:53:42;;;;;;;7.03;6.33;;;;;;;;;;5036477;28;20216;-77
2024/01/10 07:56:13;;;;;;;6.97;6.27;;;;;;;;;;5022726;28;20231;-77
2024/01/10 07:58:39;;;;;;;9.13;6.30;;;;;;;;;;5007338;28;20216;-77
2024/01/10 08:01:06;;;;;;;7.30;6.47;;;;;;;;;;5034180;28;20634;-77
2024/01/10 08:03:35;;;;;;;6.60;6.00;;;;;;;;;;5019536;28;20950;-77
2024/01/10 08:06:00;;;;;;;9.93;6.97;;;;;;;;;;5036849;28;20280;-76
2024/01/10 08:08:25;;;;;;;10.60;6.77;;;;;;;;;;5039237;28;20273;-76
2024/01/10 08:10:53;;;;;;;7.17;6.50;;;;;;;;;;5003819;28;20219;-77
2024/01/10 08:13:19;;;;;;;7.33;6.50;;;;;;;;;;5021814;28;20219;-77
2024/01/10 08:15:44;;;;;;;8.57;6.63;;;;;;;;;;5018913;28;20289;-77
2024/01/10 08:18:14;;;;;;;8.10;7.27;;;;;;;;;;5038754;28;20224;-77
2024/01/10 08:20:41;;;;;;;7.50;6.80;;;;;;;;;;5037011;28;20695;-77
2024/01/10 08:23:08;;;;;;;7.00;6.30;;;;;;;;;;5027128;28;20226;-77
2024/01/10 08:25:36;;;;;;;8.57;7.43;;;;;;;;;;5043574;28;20237;-77
2024/01/10 08:28:04;;;;;;;7.97;7.17;;;;;;;;;;5035005;28;20224;-78
2024/01/10 08:30:29;;;;;;;9.43;8.23;;;;;;;;;;5026834;28;20344;-77
2024/01/10 08:33:00;;;;;;;9.37;8.13;;;;;;;;;;5032101;28;20215;-77
2024/01/10 08:35:25;;;;;;;7.50;6.80;;;;;;;;;;5028663;28;20231;-77
2024/01/10 08:37:51;;;;;;;7.67;6.87;;;;;;;;;;5006950;28;20851;-77
2024/01/10 08:40:17;;;;;;;9.10;7.60;;;;;;;;;;5022579;28;20732;-76
2024/01/10 08:42:45;;;;;;;8.40;7.57;;;;;;;;;;5044140;28;20767;-77
2024/01/10 08:45:11;;;;;;;8.40;7.30;;;;;;;;;;5032264;28;20277;-76
2024/01/10 08:47:37;;;;;;;8.30;7.17;;;;;;;;;;5022388;28;20289;-77
2024/01/10 08:50:08;;;;;;;10.77;8.07;;;;;;;;;;5024536;28;20224;-77
2024/01/10 08:52:35;;;;;;;8.97;8.07;;;;;;;;;;5037031;28;20222;-77
2024/01/10 08:55:01;;;;;;;10.10;7.20;;;;;;;;;;5022046;28;20223;-77
2024/01/10 08:57:29;;;;;;;8.63;7.10;;;;;;;;;;5037236;28;20264;-77
2024/01/10 08:59:55;;;;;;;9.23;7.43;;;;;;;;;;5026969;28;20231;-76
2024/01/10 09:02:20;;;;;;;9.13;8.13;;;;;;;;;;5006502;28;20223;-76
2024/01/10 09:04:46;;;;;;;8.90;8.00;;;;;;;;;;5012487;28;20242;-77
2024/01/10 09:07:11;;;;;;;10.03;8.10;;;;;;;;;;5005204;28;20231;-77
2024/01/10 09:09:37;;;;;;;8.80;7.70;;;;;;;;;;5037582;28;20595;-77
2024/01/10 09:12:07;;;;;;;8.10;7.30;;;;;;;;;;5041080;28;20384;-77
2024/01/10 09:14:33;;;;;;;9.57;7.83;;;;;;;;;;5028532;28;20724;-77
2024/01/10 09:17:02;;;;;;;8.67;7.77;;;;;;;;;;5024244;28;20216;-77
2024/01/10 09:19:29;;;;;;;8.90;8.00;;;;;;;;;;5038593;28;20223;-77
2024/01/10 09:21:57;;;;;;;10.70;9.60;;;;;;;;;;5020794;28;20265;-76
2024/01/10 09:24:25;;;;;;;9.57;7.90;;;;;;;;;;5020337;28;23123;-77
2024/01/10 09:26:51;;;;;;;8.13;7.13;;;;;;;;;;5029801;28;20223;-76
2024/01/10 09:29:16;;;;;;;8.43;7.33;;;;;;;;;;5027661;28;20746;-78
2024/01/10 09:31:43;;;;;;;9.57;8.27;;;;;;;;;;5022732;28;20224;-77
2024/01/10 09:34:09;;;;;;;8.83;7.67;;;;;;;;;;5024423;28;20212;-77
2024/01/10 09:36:37;;;;;;;10.67;8.37;;;;;;;;;;4997104;28;21070;-77
2024/01/10 09:39:05;;;;;;;12.20;10.90;;;;;;;;;;5032397;28;20220;-78
2024/01/10 09:41:34;;;;;;;9.87;8.87;;;;;;;;;;5039776;28;20216;-77
2024/01/10 09:44:02;;;;;;;9.83;7.70;;;;;;;;;;5031997;28;20326;-77
2024/01/10 09:46:29;;;;;;;11.27;10.27;;;;;;;;;;5010238;28;20231;-78
2024/01/10 09:48:55;;;;;;;10.20;8.03;;;;;;;;;;5025885;28;20234;-78
2024/01/10 09:51:20;;;;;;;11.07;8.03;;;;;;;;;;4991293;28;20753;-78
2024/01/10 09:53:51;;;;;;;8.33;7.40;;;;;;;;;;5005612;28;20212;-79
2024/01/10 09:56:17;;;;;;;8.67;7.33;;;;;;;;;;5007168;28;20220;-78
2024/01/10 09:58:46;;;;;;;9.60;7.70;;;;;;;;;;5005186;28;20220;-78
2024/01/10 10:01:11;;;;;;;8.93;7.33;;;;;;;;;;5016034;28;20223;-78
2024/01/10 10:03:39;;;;;;;9.10;7.83;;;;;;;;;;5020538;28;20408;-77
2024/01/10 10:06:07;;;;;;;8.20;7.23;;;;;;;;;;5027625;28;20693;-78
2024/01/10 10:08:38;;;;;;;7.20;6.50;;;;;;;;;;5007592;28;20298;-78
2024/01/10 10:11:03;;;;;;;12.03;7.63;;;;;;;;;;5053605;28;20281;-78
2024/01/10 10:13:40;;;;;;;8.77;7.83;;;;;;;;;;5037612;28;20224;-78
2024/01/10 10:16:06;;;;;;;7.80;7.00;;;;;;;;;;5008950;28;20219;-78
2024/01/10 10:18:32;;;;;;;7.77;6.97;;;;;;;;;;5021867;28;20215;-78
2024/01/10 10:21:08;;;;;;;9.00;7.33;;;;;;;;;;5021076;28;20276;-78
2024/01/10 10:23:35;;;;;;;8.50;7.30;;;;;;;;;;5035606;28;20230;-78
2024/01/10 10:26:10;;;;;;;9.33;7.07;;;;;;;;;;5024657;28;20846;-78
2024/01/10 10:28:37;;;;;;;8.53;7.07;;;;;;;;;;5027957;28;20573;-77
2024/01/10 10:31:03;;;;;;;8.23;6.77;;;;;;;;;;5021928;28;20228;-78
2024/01/10 10:33:32;;;;;;;7.90;7.10;;;;;;;;;;5007175;28;20227;-78
2024/01/10 10:36:00;;;;;;;8.97;8.00;;;;;;;;;;5031258;28;20235;-76
2024/01/10 10:38:28;;;;;;;9.03;7.80;;;;;;;;;;5021684;28;20212;-76
2024/01/10 10:40:53;;;;;;;7.63;6.93;;;;;;;;;;5035945;28;20756;-77
2024/01/10 10:43:21;;;;;;;7.90;7.03;;;;;;;;;;5039443;28;20241;-77
2024/01/10 10:45:50;;;;;;;10.53;7.10;;;;;;;;;;5036254;28;20215;-77
2024/01/10 10:48:21;;;;;;;7.23;5.87;;;;;;;;;;4994404;28;20224;-77
2024/01/10 10:51:03;;;;;;;7.43;6.73;;;;;;;;;;5022613;28;20232;-77
2024/01/10 10:53:29;;;;;;;7.17;6.33;;;;;;;;;;5017604;28;20308;-78
2024/01/10 10:55:56;;;;;;;7.10;6.43;;;;;;;;;;5011016;28;20228;-77
2024/01/10 10:58:21;;;;;;;9.20;7.13;;;;;;;;;;5035929;28;20220;-77
2024/01/10 11:00:49;;;;;;;8.20;6.60;;;;;;;;;;5027657;28;20825;-77
2024/01/10 11:03:15;;;;;;;7.10;6.37;;;;;;;;;;5016908;28;20235;-77
2024/01/10 11:05:40;;;;;;;7.40;6.40;;;;;;;;;;5010407;28;20230;-78
2024/01/10 11:08:12;;;;;;;7.90;6.80;;;;;;;;;;5001926;28;20342;-77
2024/01/10 11:10:40;;;;;;;7.90;6.70;;;;;;;;;;5008406;28;20227;-77
2024/01/10 11:13:44;;;;;;;7.23;6.20;;;;;;;;;;5008681;28;20230;-77
2024/01/10 11:16:37;;;;;;;6.63;5.93;;;;;;;;;;5048022;28;20766;-77
2024/01/10 11:19:12;;;;;;;6.17;5.57;;;;;;;;;;5022996;28;20231;-77
2024/01/10 11:21:43;;;;;;;7.00;6.30;;;;;;;;;;5033460;28;20274;-77
2024/01/10 11:24:09;;;;;;;8.70;6.90;;;;;;;;;;5041615;28;20223;-77
2024/01/10 11:26:37;;;;;;;6.67;5.90;;;;;;;;;;5029871;28;20231;-77
2024/01/10 11:29:06;;;;;;;6.10;5.60;;;;;;;;;;5049893;28;20219;-77
2024/01/10 11:31:34;;;;;;;9.63;6.50;;;;;;;;;;5024941;28;20465;-76
2024/01/10 11:34:05;;;;;;;6.87;6.17;;;;;;;;;;5036517;28;20263;-77
2024/01/10 11:36:31;;;;;;;7.87;5.90;;;;;;;;;;5005656;28;20227;-77
2024/01/10 11:39:04;;;;;;;7.17;6.03;;;;;;;;;;5009607;28;20250;-77
2024/01/10 11:41:31;;;;;;;9.40;5.90;;;;;;;;;;5037213;28;20223;-77
2024/01/10 11:44:12;;;;;;;9.47;6.43;;;;;;;;;;5039639;28;20223;-77
2024/01/10 11:46:38;;;;;;;9.87;6.37;;;;;;;;;;5034499;28;20227;-77
2024/01/10 11:49:07;;;;;;;6.50;5.90;;;;;;;;;;5039923;28;20815;-78
2024/01/10 11:51:32;;;;;;;18.43;7.23;;;;;;;;;;5008053;28;20271;-77
2024/01/10 11:54:00;;;;;;;11.57;6.80;;;;;;;;;;5026398;28;20333;-78
2024/01/10 11:56:26;;;;;;;6.90;6.20;;;;;;;;;;5024904;28;20713;-76
2024/01/10 11:58:57;;;;;;;7.43;5.73;;;;;;;;;;4993322;28;20212;-77
2024/01/10 12:01:25;;;;;;;8.57;6.23;;;;;;;;;;5036322;28;20219;-77
2024/01/10 12:03:51;;;;;;;6.03;5.33;;;;;;;;;;5002037;28;21079;-78
2024/01/10 12:06:20;;;;;;;12.07;10.87;;;;;;;;;;5041802;28;20228;-77
2024/01/10 12:08:51;;;;;;;7.60;6.90;;;;;;;;;;5003333;28;20230;-77
2024/01/10 12:11:16;;;;;;;6.67;5.97;;;;;;;;;;5030703;28;20295;-76
2024/01/10 12:13:44;;;;;;;6.90;5.70;;;;;;;;;;5024959;28;20219;-77
2024/01/10 12:16:17;;;;;;;6.70;5.60;;;;;;;;;;4998996;28;20730;-76
2024/01/10 12:18:45;;;;;;;10.43;5.50;;;;;;;;;;5003773;28;20224;-77
2024/01/10 12:21:12;;;;;;;6.93;5.83;;;;;;;;;;5034270;28;20310;-76
2024/01/10 12:23:43;;;;;;;8.57;5.30;;;;;;;;;;5038540;28;20764;-76
2024/01/10 12:26:09;;;;;;;7.17;5.90;;;;;;;;;;5038408;28;20277;-77
2024/01/10 12:28:35;;;;;;;6.43;5.83;;;;;;;;;;4997680;28;20278;-76
2024/01/10 12:31:01;;;;;;;6.10;5.60;;;;;;;;;;5023864;28;20231;-76
2024/01/10 12:33:27;;;;;;;8.47;4.97;;;;;;;;;;5024403;28;20660;-77
2024/01/10 12:36:12;;;;;;;6.93;5.80;;;;;;;;;;5035680;28;20298;-77
2024/01/10 12:38:40;;;;;;;5.80;5.30;;;;;;;;;;4999111;28;20294;-77
2024/01/10 12:41:09;;;;;;;6.23;5.63;;;;;;;;;;5011755;28;20224;-77
2024/01/10 12:43:34;;;;;;;6.80;5.03;;;;;;;;;;5020479;28;20282;-77
2024/01/10 12:46:07;;;;;;;7.33;6.10;;;;;;;;;;5004315;28;20471;-78
2024/01/10 12:48:41;;;;;;;7.23;6.17;;;;;;;;;;5038454;28;20566;-76
2024/01/10 12:51:12;;;;;;;5.33;4.83;;;;;;;;;;5050586;28;20244;-77
2024/01/10 12:53:44;;;;;;;8.93;6.53;;;;;;;;;;5026528;28;20310;-77
2024/01/10 12:56:13;;;;;;;6.67;5.93;;;;;;;;;;5000870;28;20224;-77
2024/01/10 12:58:42;;;;;;;9.57;5.37;;;;;;;;;;5020654;28;20218;-77
2024/01/10 13:01:12;;;;;;;7.90;5.57;;;;;;;;;;5041298;28;20239;-77
2024/01/10 13:03:40;;;;;;;8.77;6.13;;;;;;;;;;5030177;28;20243;-77
2024/01/10 13:06:06;;;;;;;6.23;5.57;;;;;;;;;;5035321;28;20227;-76
2024/01/10 13:08:34;;;;;;;7.43;6.07;;;;;;;;;;5003817;28;20761;-76
2024/01/10 13:10:59;;;;;;;8.13;5.60;;;;;;;;;;5038282;28;20306;-76
2024/01/10 13:13:26;;;;;;;6.97;5.17;;;;;;;;;;5021357;28;20558;-78
2024/01/10 13:15:51;;;;;;;6.23;5.40;;;;;;;;;;5035366;28;20224;-78
2024/01/10 13:18:22;;;;;;;6.73;5.27;;;;;;;;;;5005128;28;20271;-78
2024/01/10 13:20:49;;;;;;;6.83;5.80;;;;;;;;;;5027937;28;20212;-78
2024/01/10 13:23:15;;;;;;;8.40;6.17;;;;;;;;;;5039195;28;20255;-78
2024/01/10 13:25:41;;;;;;;6.27;5.60;;;;;;;;;;5036489;28;20228;-77
2024/01/10 13:28:06;;;;;;;6.77;5.40;;;;;;;;;;4989522;28;20299;-76
2024/01/10 13:30:32;;;;;;;7.30;6.03;;;;;;;;;;5044163;28;20254;-77
2024/01/10 13:32:58;;;;;;;9.97;7.80;;;;;;;;;;5042115;28;20692;-77
2024/01/10 13:35:25;;;;;;;6.30;5.70;;;;;;;;;;5039181;28;20231;-77
2024/01/10 13:37:53;;;;;;;7.73;6.43;;;;;;;;;;5036876;28;20220;-77
2024/01/10 13:40:24;;;;;;;6.10;5.50;;;;;;;;;;5007027;28;20638;-76
2024/01/10 13:42:52;;;;;;;6.07;5.23;;;;;;;;;;5043483;28;20224;-77
2024/01/10 13:45:17;;;;;;;6.73;6.03;;;;;;;;;;5028174;28;20269;-77
2024/01/10 13:47:45;;;;;;;6.40;5.80;;;;;;;;;;5038889;28;20228;-77
2024/01/10 13:50:11;;;;;;;6.77;6.13;;;;;;;;;;5041434;28;20938;-77
2024/01/10 13:52:38;;;;;;;6.73;6.13;;;;;;;;;;5038780;28;20219;-76
2024/01/10 13:55:04;;;;;;;6.87;6.03;;;;;;;;;;5022350;28;20323;-76
2024/01/10 13:57:30;;;;;;;6.10;4.97;;;;;;;;;;5039295;28;20561;-76
2024/01/10 13:59:56;;;;;;;7.13;5.00;;;;;;;;;;5026366;28;20253;-77
2024/01/10 14:02:23;;;;;;;8.57;4.90;;;;;;;;;;5029409;28;20223;-77
2024/01/10 14:04:50;;;;;;;6.57;5.30;;;;;;;;;;5011751;28;20794;-77
2024/01/10 14:07:15;;;;;;;5.17;4.67;;;;;;;;;;5036625;28;20228;-77
2024/01/10 14:09:41;;;;;;;8.20;5.33;;;;;;;;;;5008967;28;20220;-78
2024/01/10 14:12:08;;;;;;;6.27;5.03;;;;;;;;;;4991935;28;20290;-78
2024/01/10 14:14:34;;;;;;;5.47;4.93;;;;;;;;;;5023709;28;20223;-78
2024/01/10 14:17:00;;;;;;;5.90;4.60;;;;;;;;;;5036148;28;20227;-77
2024/01/10 14:19:26;;;;;;;5.43;4.90;;;;;;;;;;5022221;28;20234;-78
2024/01/10 14:21:52;;;;;;;6.37;5.77;;;;;;;;;;5038014;28;20212;-78
2024/01/10 14:24:19;;;;;;;5.70;5.13;;;;;;;;;;4995497;28;20213;-78
2024/01/10 14:26:45;;;;;;;5.70;4.70;;;;;;;;;;5037940;28;20281;-77
2024/01/10 14:29:10;;;;;;;6.87;5.03;;;;;;;;;;5024361;28;20668;-78
2024/01/10 14:31:36;;;;;;;6.90;5.60;;;;;;;;;;5038648;28;20227;-77
2024/01/10 14:34:02;;;;;;;5.83;5.33;;;;;;;;;;5022824;28;20243;-77
2024/01/10 14:36:30;;;;;;;6.43;5.83;;;;;;;;;;5037768;28;20224;-78
2024/01/10 14:38:56;;;;;;;6.87;5.60;;;;;;;;;;5039822;28;20230;-78
2024/01/10 14:41:23;;;;;;;8.90;5.37;;;;;;;;;;5020366;28;20215;-78
2024/01/10 14:43:49;;;;;;;5.90;5.33;;;;;;;;;;5014393;28;20244;-78
2024/01/10 14:46:15;;;;;;;9.40;6.40;;;;;;;;;;5037950;28;20349;-78
2024/01/10 14:48:40;;;;;;;7.60;5.67;;;;;;;;;;5037142;28;20255;-78
2024/01/10 14:51:06;;;;;;;7.90;5.53;;;;;;;;;;5045541;28;20238;-78
2024/01/10 14:53:35;;;;;;;5.40;4.90;;;;;;;;;;5020445;28;20234;-77
2024/01/10 14:56:00;;;;;;;5.77;5.00;;;;;;;;;;5045006;28;20875;-77